Healdsburg, CA

7:33 PM PDT on September 17, 2014 (GMT -0700)
NNW Healdsburg | Change Station
CLOSE
Current Station
Personal Weather Station
Location: Healdsburg, CA
Elevation: 259 ft
Nearby Weather Stations

Elev 259 ft 38.65 °N, 122.88 °W | Updated 3 minutes ago

Overcast
Overcast
69.8 °F
Feels Like 69.8 °F
N
4.0
Wind Variable Wind from SE
Gusts 4.0 mph

Today
High -- | Low -- °F
--% Chance of Precip.
Yesterday
High -- | Low -- °F
Precip. -- in
6:54 AM 7:16 PM
Waning Crescent, 31% visible
Pressure 29.72 in
Visibility 10.0 miles
Clouds Overcast 4200 ft
Dew Point 57 °F
Humidity 64%
Rainfall 0.00 in
Snow Depth 0 in , 0 in , 1 in
UV 0 out of 12
Pollen 5.10 out of 12
Air Quality Not available.
Flu Activity Not available.
METAR KSTS 180153Z VRB04KT 10SM OVC042 21/14 A2974 RMK AO2 SLP063 T02110139

More Conditions Fewer Conditions

Pressure 29.72 in
Visibility 10.0 miles
Clouds Overcast 4200 ft
Dew Point 57 °F
Humidity 64%
Rainfall 0.00 in
Snow Depth 0 in , 0 in , 1 in
UV 0 out of 12
Pollen 5.10 out of 12
Air Quality Not available.
Flu Activity Not available.
METAR KSTS 180153Z VRB04KT 10SM OVC042 21/14 A2974 RMK AO2 SLP063 T02110139

More Conditions Fewer Conditions

10-Day Weather Forecast

Almanac

Astronomy

Sep. 17, 2014 Rise Set
Actual Time 6:54 AM PDT 7:16 PM PDT
Civil Twilight 6:28 AM PDT 7:42 PM PDT
Nautical Twilight 5:57 AM PDT 8:14 PM PDT
Astronomical Twilight 5:25 AM PDT 8:45 PM PDT
Moon 1:02 AM PDT (9/17) 3:27 PM PDT (9/17)
Length of Visible Light 13h 14m
Length of Day
12h 21m
Tomorrow will be 2m 28s shorter.
Waning Crescent, 31% of the Moon is Illuminated
Today
Waning Crescent
Sep 24
New
Oct 1
First Quarter
Oct 8
Full
Oct 15
Last Quarter

Today's Extremes

State Highs State Lows

Community

WunderPhotos

Upload Photos

1,754,268 photos uploaded!

Nearby

Air Quality

  Air Quality AQ Index Pollutant
Wednesday Good
PM2.5
Thursday Good
OZONE
Friday Good
PM2.5
Saturday Moderate
PM2.5
Sunday Moderate
PM2.5
Monday Moderate
PM2.5

Snow Depth

Station Depth Elevation
Leavitt Meadows 0 in 7200 ft
Leavitt Lake 0 in 9400 ft
Summit Meadow 1 in 9122 ft
Spratt Creek 0 in 6200 ft
CSS Lab 2 in 6900 ft

Earthquake Activity

City Distance Mag. Time & Date
Cobb, California 13 miles 2.7 1:23 PM PDT
2014-09-16
Minimum magnitude displayed is 2.5.

Coastal Water Temperatures

Place Temperature
Point Reyes, CA 62.1 °F
Arena Cove, CA 60.1 °F
San Francisco, CA 64.9 °F
Richmond, CA 68.0 °F

Nearby Weather Stations